sensor_id;sensor_type;location;lat;lon;timestamp;P1;durP1;ratioP1;P2;durP2;ratioP2
41755;SDS011;27435;48.480;9.258;2024-01-30T00:01:15;13.63;;;6.37;;
41755;SDS011;27435;48.480;9.258;2024-01-30T00:03:41;14.57;;;6.10;;
41755;SDS011;27435;48.480;9.258;2024-01-30T00:06:07;15.33;;;7.30;;
41755;SDS011;27435;48.480;9.258;2024-01-30T00:08:33;15.03;;;6.20;;
41755;SDS011;27435;48.480;9.258;2024-01-30T00:10:59;11.70;;;5.57;;
41755;SDS011;27435;48.480;9.258;2024-01-30T00:13:25;11.40;;;6.40;;
41755;SDS011;27435;48.480;9.258;2024-01-30T00:15:52;13.80;;;6.47;;
41755;SDS011;27435;48.480;9.258;2024-01-30T00:18:17;13.63;;;6.93;;
41755;SDS011;27435;48.480;9.258;2024-01-30T00:20:43;16.67;;;7.13;;
41755;SDS011;27435;48.480;9.258;2024-01-30T00:23:09;12.17;;;6.47;;
41755;SDS011;27435;48.480;9.258;2024-01-30T00:25:35;14.37;;;6.50;;
41755;SDS011;27435;48.480;9.258;2024-01-30T00:28:00;10.47;;;5.77;;
41755;SDS011;27435;48.480;9.258;2024-01-30T00:30:26;13.10;;;6.30;;
41755;SDS011;27435;48.480;9.258;2024-01-30T00:32:52;11.73;;;6.10;;
41755;SDS011;27435;48.480;9.258;2024-01-30T00:35:18;11.30;;;6.10;;
41755;SDS011;27435;48.480;9.258;2024-01-30T00:37:44;17.20;;;6.73;;
41755;SDS011;27435;48.480;9.258;2024-01-30T00:40:09;14.33;;;5.73;;
41755;SDS011;27435;48.480;9.258;2024-01-30T00:42:40;13.43;;;6.50;;
41755;SDS011;27435;48.480;9.258;2024-01-30T00:45:15;11.63;;;6.00;;
41755;SDS011;27435;48.480;9.258;2024-01-30T00:47:42;10.87;;;5.20;;
41755;SDS011;27435;48.480;9.258;2024-01-30T00:50:08;13.33;;;5.70;;
41755;SDS011;27435;48.480;9.258;2024-01-30T00:52:34;12.97;;;5.90;;
41755;SDS011;27435;48.480;9.258;2024-01-30T00:55:00;17.20;;;6.73;;
41755;SDS011;27435;48.480;9.258;2024-01-30T00:57:26;11.33;;;5.37;;
41755;SDS011;27435;48.480;9.258;2024-01-30T00:59:52;13.33;;;6.37;;
41755;SDS011;27435;48.480;9.258;2024-01-30T01:02:17;12.57;;;5.90;;
41755;SDS011;27435;48.480;9.258;2024-01-30T01:04:43;13.97;;;6.20;;
41755;SDS011;27435;48.480;9.258;2024-01-30T01:07:10;12.20;;;5.90;;
41755;SDS011;27435;48.480;9.258;2024-01-30T01:09:36;12.27;;;6.07;;
41755;SDS011;27435;48.480;9.258;2024-01-30T01:12:02;13.47;;;5.70;;
41755;SDS011;27435;48.480;9.258;2024-01-30T01:14:28;15.67;;;6.47;;
41755;SDS011;27435;48.480;9.258;2024-01-30T01:16:54;11.90;;;6.50;;
41755;SDS011;27435;48.480;9.258;2024-01-30T01:19:19;11.57;;;6.10;;
41755;SDS011;27435;48.480;9.258;2024-01-30T01:21:45;13.83;;;6.57;;
41755;SDS011;27435;48.480;9.258;2024-01-30T01:24:11;12.43;;;6.13;;
41755;SDS011;27435;48.480;9.258;2024-01-30T01:26:36;12.67;;;6.17;;
41755;SDS011;27435;48.480;9.258;2024-01-30T01:29:02;14.20;;;5.47;;
41755;SDS011;27435;48.480;9.258;2024-01-30T01:31:34;10.13;;;5.30;;
41755;SDS011;27435;48.480;9.258;2024-01-30T01:34:12;13.07;;;5.82;;
41755;SDS011;27435;48.480;9.258;2024-01-30T01:36:38;11.77;;;5.97;;
41755;SDS011;27435;48.480;9.258;2024-01-30T01:39:04;11.77;;;6.17;;
41755;SDS011;27435;48.480;9.258;2024-01-30T01:41:30;12.20;;;5.73;;
41755;SDS011;27435;48.480;9.258;2024-01-30T01:43:57;14.43;;;6.13;;
41755;SDS011;27435;48.480;9.258;2024-01-30T01:46:23;10.47;;;5.97;;
41755;SDS011;27435;48.480;9.258;2024-01-30T01:48:48;12.90;;;5.37;;
41755;SDS011;27435;48.480;9.258;2024-01-30T01:51:14;11.40;;;6.23;;
41755;SDS011;27435;48.480;9.258;2024-01-30T01:53:41;11.73;;;6.10;;
41755;SDS011;27435;48.480;9.258;2024-01-30T01:56:07;15.87;;;7.90;;
41755;SDS011;27435;48.480;9.258;2024-01-30T01:58:33;14.83;;;6.90;;
41755;SDS011;27435;48.480;9.258;2024-01-30T02:00:59;14.03;;;6.80;;
41755;SDS011;27435;48.480;9.258;2024-01-30T02:03:25;15.77;;;6.93;;
41755;SDS011;27435;48.480;9.258;2024-01-30T02:05:50;14.17;;;6.23;;
41755;SDS011;27435;48.480;9.258;2024-01-30T02:08:16;13.40;;;6.93;;
41755;SDS011;27435;48.480;9.258;2024-01-30T02:10:42;15.50;;;6.40;;
41755;SDS011;27435;48.480;9.258;2024-01-30T02:13:08;12.43;;;5.43;;
41755;SDS011;27435;48.480;9.258;2024-01-30T02:15:33;15.60;;;5.53;;
41755;SDS011;27435;48.480;9.258;2024-01-30T02:17:59;12.00;;;5.77;;
41755;SDS011;27435;48.480;9.258;2024-01-30T02:20:25;13.63;;;5.57;;
41755;SDS011;27435;48.480;9.258;2024-01-30T02:22:55;10.80;;;5.93;;
41755;SDS011;27435;48.480;9.258;2024-01-30T02:25:31;9.87;;;5.37;;
41755;SDS011;27435;48.480;9.258;2024-01-30T02:28:03;11.07;;;5.43;;
41755;SDS011;27435;48.480;9.258;2024-01-30T02:30:29;9.43;;;5.03;;
41755;SDS011;27435;48.480;9.258;2024-01-30T02:32:54;11.80;;;4.90;;
41755;SDS011;27435;48.480;9.258;2024-01-30T02:35:20;11.40;;;5.40;;
41755;SDS011;27435;48.480;9.258;2024-01-30T02:37:46;12.00;;;5.50;;
41755;SDS011;27435;48.480;9.258;2024-01-30T02:40:11;10.97;;;5.60;;
41755;SDS011;27435;48.480;9.258;2024-01-30T02:42:37;10.90;;;5.20;;
41755;SDS011;27435;48.480;9.258;2024-01-30T02:45:04;11.57;;;5.93;;
41755;SDS011;27435;48.480;9.258;2024-01-30T02:47:30;10.97;;;5.80;;
41755;SDS011;27435;48.480;9.258;2024-01-30T02:49:55;10.17;;;5.20;;
41755;SDS011;27435;48.480;9.258;2024-01-30T02:52:21;10.93;;;5.47;;
41755;SDS011;27435;48.480;9.258;2024-01-30T02:54:46;12.50;;;5.13;;
41755;SDS011;27435;48.480;9.258;2024-01-30T02:57:12;10.47;;;5.57;;
41755;SDS011;27435;48.480;9.258;2024-01-30T02:59:37;9.97;;;4.97;;
41755;SDS011;27435;48.480;9.258;2024-01-30T03:02:03;11.80;;;5.37;;
41755;SDS011;27435;48.480;9.258;2024-01-30T03:04:29;10.90;;;5.93;;
41755;SDS011;27435;48.480;9.258;2024-01-30T03:06:55;9.70;;;4.73;;
41755;SDS011;27435;48.480;9.258;2024-01-30T03:09:20;11.23;;;5.80;;
41755;SDS011;27435;48.480;9.258;2024-01-30T03:11:46;11.97;;;6.20;;
41755;SDS011;27435;48.480;9.258;2024-01-30T03:14:12;10.13;;;5.17;;
41755;SDS011;27435;48.480;9.258;2024-01-30T03:16:37;11.77;;;5.80;;
41755;SDS011;27435;48.480;9.258;2024-01-30T03:19:04;13.10;;;5.37;;
41755;SDS011;27435;48.480;9.258;2024-01-30T03:21:32;8.87;;;4.67;;
41755;SDS011;27435;48.480;9.258;2024-01-30T03:23:58;11.33;;;4.80;;
41755;SDS011;27435;48.480;9.258;2024-01-30T03:26:24;9.47;;;5.30;;
41755;SDS011;27435;48.480;9.258;2024-01-30T03:28:50;8.97;;;4.87;;
41755;SDS011;27435;48.480;9.258;2024-01-30T03:31:15;7.67;;;4.10;;
41755;SDS011;27435;48.480;9.258;2024-01-30T03:33:41;6.73;;;3.73;;
41755;SDS011;27435;48.480;9.258;2024-01-30T03:36:07;9.93;;;4.37;;
41755;SDS011;27435;48.480;9.258;2024-01-30T03:38:33;9.90;;;4.10;;
41755;SDS011;27435;48.480;9.258;2024-01-30T03:40:59;6.97;;;3.97;;
41755;SDS011;27435;48.480;9.258;2024-01-30T03:43:25;8.37;;;3.80;;
41755;SDS011;27435;48.480;9.258;2024-01-30T03:45:51;10.40;;;4.23;;
41755;SDS011;27435;48.480;9.258;2024-01-30T03:48:16;12.60;;;4.70;;
41755;SDS011;27435;48.480;9.258;2024-01-30T03:50:44;8.73;;;4.33;;
41755;SDS011;27435;48.480;9.258;2024-01-30T03:53:09;8.27;;;4.13;;
41755;SDS011;27435;48.480;9.258;2024-01-30T03:55:35;6.67;;;3.50;;
41755;SDS011;27435;48.480;9.258;2024-01-30T03:58:01;7.97;;;3.90;;
41755;SDS011;27435;48.480;9.258;2024-01-30T04:00:28;9.07;;;4.53;;
41755;SDS011;27435;48.480;9.258;2024-01-30T04:02:53;8.73;;;3.80;;
41755;SDS011;27435;48.480;9.258;2024-01-30T04:05:19;6.93;;;3.90;;
41755;SDS011;27435;48.480;9.258;2024-01-30T04:07:45;6.70;;;3.80;;
41755;SDS011;27435;48.480;9.258;2024-01-30T04:10:10;9.23;;;3.23;;
41755;SDS011;27435;48.480;9.258;2024-01-30T04:12:36;7.83;;;3.83;;
41755;SDS011;27435;48.480;9.258;2024-01-30T04:15:02;8.07;;;4.03;;
41755;SDS011;27435;48.480;9.258;2024-01-30T04:17:28;6.83;;;3.87;;
41755;SDS011;27435;48.480;9.258;2024-01-30T04:19:54;6.67;;;3.30;;
41755;SDS011;27435;48.480;9.258;2024-01-30T04:22:20;7.37;;;3.83;;
41755;SDS011;27435;48.480;9.258;2024-01-30T04:24:46;9.07;;;3.47;;
41755;SDS011;27435;48.480;9.258;2024-01-30T04:27:12;5.87;;;3.60;;
41755;SDS011;27435;48.480;9.258;2024-01-30T04:29:37;8.90;;;4.37;;
41755;SDS011;27435;48.480;9.258;2024-01-30T04:32:03;7.17;;;4.10;;
41755;SDS011;27435;48.480;9.258;2024-01-30T04:34:29;8.63;;;4.20;;
41755;SDS011;27435;48.480;9.258;2024-01-30T04:36:55;9.97;;;4.17;;
41755;SDS011;27435;48.480;9.258;2024-01-30T04:39:21;5.80;;;3.23;;
41755;SDS011;27435;48.480;9.258;2024-01-30T04:41:46;6.50;;;3.77;;
41755;SDS011;27435;48.480;9.258;2024-01-30T04:44:13;6.60;;;3.53;;
41755;SDS011;27435;48.480;9.258;2024-01-30T04:46:39;7.60;;;4.07;;
41755;SDS011;27435;48.480;9.258;2024-01-30T04:49:04;10.80;;;4.43;;
41755;SDS011;27435;48.480;9.258;2024-01-30T04:51:32;7.67;;;3.77;;
41755;SDS011;27435;48.480;9.258;2024-01-30T04:53:58;7.63;;;4.13;;
41755;SDS011;27435;48.480;9.258;2024-01-30T04:56:24;9.27;;;4.07;;
41755;SDS011;27435;48.480;9.258;2024-01-30T04:58:49;8.17;;;3.90;;
41755;SDS011;27435;48.480;9.258;2024-01-30T05:01:18;7.47;;;3.63;;
41755;SDS011;27435;48.480;9.258;2024-01-30T05:03:44;6.87;;;4.13;;
41755;SDS011;27435;48.480;9.258;2024-01-30T05:06:10;8.53;;;4.27;;
41755;SDS011;27435;48.480;9.258;2024-01-30T05:08:35;6.90;;;3.30;;
41755;SDS011;27435;48.480;9.258;2024-01-30T05:11:05;7.67;;;4.00;;
41755;SDS011;27435;48.480;9.258;2024-01-30T05:13:31;8.77;;;3.30;;
41755;SDS011;27435;48.480;9.258;2024-01-30T05:15:56;7.70;;;3.70;;
41755;SDS011;27435;48.480;9.258;2024-01-30T05:18:22;7.87;;;3.70;;
41755;SDS011;27435;48.480;9.258;2024-01-30T05:20:49;5.80;;;3.10;;
41755;SDS011;27435;48.480;9.258;2024-01-30T05:23:15;7.60;;;3.37;;
41755;SDS011;27435;48.480;9.258;2024-01-30T05:25:41;8.07;;;3.97;;
41755;SDS011;27435;48.480;9.258;2024-01-30T05:28:07;5.10;;;2.63;;
41755;SDS011;27435;48.480;9.258;2024-01-30T05:30:32;6.23;;;3.17;;
41755;SDS011;27435;48.480;9.258;2024-01-30T05:32:58;6.63;;;3.17;;
41755;SDS011;27435;48.480;9.258;2024-01-30T05:35:23;6.60;;;3.13;;
41755;SDS011;27435;48.480;9.258;2024-01-30T05:37:49;5.20;;;2.50;;
41755;SDS011;27435;48.480;9.258;2024-01-30T05:40:15;5.77;;;2.50;;
41755;SDS011;27435;48.480;9.258;2024-01-30T05:42:41;5.73;;;2.77;;
41755;SDS011;27435;48.480;9.258;2024-01-30T05:45:07;5.07;;;2.53;;
41755;SDS011;27435;48.480;9.258;2024-01-30T05:47:33;5.50;;;2.10;;
41755;SDS011;27435;48.480;9.258;2024-01-30T05:49:59;3.83;;;1.87;;
41755;SDS011;27435;48.480;9.258;2024-01-30T05:52:25;3.53;;;1.90;;
41755;SDS011;27435;48.480;9.258;2024-01-30T05:54:51;4.80;;;2.17;;
41755;SDS011;27435;48.480;9.258;2024-01-30T05:57:16;5.93;;;2.10;;
41755;SDS011;27435;48.480;9.258;2024-01-30T05:59:42;4.00;;;1.90;;
41755;SDS011;27435;48.480;9.258;2024-01-30T06:02:12;5.23;;;1.80;;
41755;SDS011;27435;48.480;9.258;2024-01-30T06:04:38;5.33;;;2.70;;
41755;SDS011;27435;48.480;9.258;2024-01-30T06:07:04;3.10;;;1.80;;
41755;SDS011;27435;48.480;9.258;2024-01-30T06:09:31;3.87;;;1.77;;
41755;SDS011;27435;48.480;9.258;2024-01-30T06:11:57;5.27;;;1.37;;
41755;SDS011;27435;48.480;9.258;2024-01-30T06:14:22;6.10;;;1.60;;
41755;SDS011;27435;48.480;9.258;2024-01-30T06:16:48;3.00;;;1.53;;
41755;SDS011;27435;48.480;9.258;2024-01-30T06:19:14;3.40;;;0.97;;
41755;SDS011;27435;48.480;9.258;2024-01-30T06:21:40;3.47;;;1.57;;
41755;SDS011;27435;48.480;9.258;2024-01-30T06:24:05;3.87;;;1.50;;
41755;SDS011;27435;48.480;9.258;2024-01-30T06:26:31;3.73;;;1.70;;
41755;SDS011;27435;48.480;9.258;2024-01-30T06:28:57;3.20;;;1.53;;
41755;SDS011;27435;48.480;9.258;2024-01-30T06:31:22;3.93;;;2.13;;
41755;SDS011;27435;48.480;9.258;2024-01-30T06:33:48;4.93;;;2.27;;
41755;SDS011;27435;48.480;9.258;2024-01-30T06:36:14;4.13;;;2.10;;
41755;SDS011;27435;48.480;9.258;2024-01-30T06:38:40;6.03;;;2.23;;
41755;SDS011;27435;48.480;9.258;2024-01-30T06:41:06;4.43;;;2.40;;
41755;SDS011;27435;48.480;9.258;2024-01-30T06:43:32;7.37;;;3.10;;
41755;SDS011;27435;48.480;9.258;2024-01-30T06:45:57;7.37;;;2.80;;
41755;SDS011;27435;48.480;9.258;2024-01-30T06:48:24;6.53;;;3.00;;
41755;SDS011;27435;48.480;9.258;2024-01-30T06:50:52;8.73;;;3.07;;
41755;SDS011;27435;48.480;9.258;2024-01-30T06:53:18;7.47;;;3.47;;
41755;SDS011;27435;48.480;9.258;2024-01-30T06:55:44;6.40;;;2.97;;
41755;SDS011;27435;48.480;9.258;2024-01-30T06:58:10;5.70;;;3.17;;
41755;SDS011;27435;48.480;9.258;2024-01-30T07:00:36;6.53;;;3.20;;
41755;SDS011;27435;48.480;9.258;2024-01-30T07:03:02;8.50;;;3.47;;
41755;SDS011;27435;48.480;9.258;2024-01-30T07:05:28;5.60;;;2.73;;
41755;SDS011;27435;48.480;9.258;2024-01-30T07:07:53;6.60;;;3.43;;
41755;SDS011;27435;48.480;9.258;2024-01-30T07:10:19;7.73;;;3.57;;
41755;SDS011;27435;48.480;9.258;2024-01-30T07:12:45;6.83;;;3.50;;
41755;SDS011;27435;48.480;9.258;2024-01-30T07:15:10;7.07;;;3.43;;
41755;SDS011;27435;48.480;9.258;2024-01-30T07:17:36;6.70;;;3.13;;
41755;SDS011;27435;48.480;9.258;2024-01-30T07:20:02;7.77;;;3.40;;
41755;SDS011;27435;48.480;9.258;2024-01-30T07:22:33;9.97;;;3.37;;
41755;SDS011;27435;48.480;9.258;2024-01-30T07:24:58;6.70;;;3.60;;
41755;SDS011;27435;48.480;9.258;2024-01-30T07:27:24;11.50;;;4.37;;
41755;SDS011;27435;48.480;9.258;2024-01-30T07:29:50;11.80;;;5.53;;
41755;SDS011;27435;48.480;9.258;2024-01-30T07:32:15;11.67;;;4.00;;
41755;SDS011;27435;48.480;9.258;2024-01-30T07:34:41;9.43;;;4.13;;
41755;SDS011;27435;48.480;9.258;2024-01-30T07:37:06;13.87;;;5.57;;
41755;SDS011;27435;48.480;9.258;2024-01-30T07:39:33;15.90;;;5.23;;
41755;SDS011;27435;48.480;9.258;2024-01-30T07:41:59;14.27;;;5.67;;
41755;SDS011;27435;48.480;9.258;2024-01-30T07:44:25;12.97;;;5.30;;
41755;SDS011;27435;48.480;9.258;2024-01-30T07:46:51;11.77;;;5.00;;
41755;SDS011;27435;48.480;9.258;2024-01-30T07:49:16;16.33;;;5.10;;
41755;SDS011;27435;48.480;9.258;2024-01-30T07:51:42;12.13;;;4.97;;
41755;SDS011;27435;48.480;9.258;2024-01-30T07:54:12;11.70;;;4.47;;
41755;SDS011;27435;48.480;9.258;2024-01-30T07:56:40;14.77;;;4.73;;
41755;SDS011;27435;48.480;9.258;2024-01-30T07:59:09;10.70;;;4.43;;
41755;SDS011;27435;48.480;9.258;2024-01-30T08:01:35;11.03;;;4.97;;
41755;SDS011;27435;48.480;9.258;2024-01-30T08:04:00;19.47;;;8.37;;
41755;SDS011;27435;48.480;9.258;2024-01-30T08:06:26;10.43;;;4.83;;
41755;SDS011;27435;48.480;9.258;2024-01-30T08:08:52;9.30;;;4.60;;
41755;SDS011;27435;48.480;9.258;2024-01-30T08:11:19;11.33;;;5.97;;
41755;SDS011;27435;48.480;9.258;2024-01-30T08:13:45;11.33;;;5.33;;
41755;SDS011;27435;48.480;9.258;2024-01-30T08:16:11;8.27;;;4.40;;
41755;SDS011;27435;48.480;9.258;2024-01-30T08:18:37;8.73;;;4.73;;
41755;SDS011;27435;48.480;9.258;2024-01-30T08:21:03;10.67;;;5.40;;
41755;SDS011;27435;48.480;9.258;2024-01-30T08:23:29;4.47;;;2.47;;
41755;SDS011;27435;48.480;9.258;2024-01-30T08:25:55;13.13;;;4.47;;
41755;SDS011;27435;48.480;9.258;2024-01-30T08:28:20;7.23;;;3.33;;
41755;SDS011;27435;48.480;9.258;2024-01-30T08:30:46;7.13;;;3.70;;
41755;SDS011;27435;48.480;9.258;2024-01-30T08:33:12;5.43;;;2.77;;
41755;SDS011;27435;48.480;9.258;2024-01-30T08:35:38;6.37;;;1.70;;
41755;SDS011;27435;48.480;9.258;2024-01-30T08:38:04;7.37;;;3.00;;
41755;SDS011;27435;48.480;9.258;2024-01-30T08:40:29;4.83;;;2.30;;
41755;SDS011;27435;48.480;9.258;2024-01-30T08:42:55;4.43;;;2.13;;
41755;SDS011;27435;48.480;9.258;2024-01-30T08:45:21;3.57;;;1.43;;
41755;SDS011;27435;48.480;9.258;2024-01-30T08:47:46;2.80;;;1.00;;
41755;SDS011;27435;48.480;9.258;2024-01-30T08:50:12;3.73;;;1.10;;
41755;SDS011;27435;48.480;9.258;2024-01-30T08:52:38;3.20;;;1.20;;
41755;SDS011;27435;48.480;9.258;2024-01-30T08:55:05;2.40;;;1.10;;
41755;SDS011;27435;48.480;9.258;2024-01-30T08:57:31;4.50;;;1.10;;
41755;SDS011;27435;48.480;9.258;2024-01-30T08:59:56;2.60;;;1.10;;
41755;SDS011;27435;48.480;9.258;2024-01-30T09:02:22;3.27;;;1.23;;
41755;SDS011;27435;48.480;9.258;2024-01-30T09:04:48;2.57;;;1.27;;
41755;SDS011;27435;48.480;9.258;2024-01-30T09:07:14;5.33;;;2.10;;
41755;SDS011;27435;48.480;9.258;2024-01-30T09:09:39;5.13;;;1.37;;
41755;SDS011;27435;48.480;9.258;2024-01-30T09:12:06;3.50;;;1.37;;
41755;SDS011;27435;48.480;9.258;2024-01-30T09:14:34;4.10;;;1.20;;
41755;SDS011;27435;48.480;9.258;2024-01-30T09:17:00;6.07;;;3.40;;
41755;SDS011;27435;48.480;9.258;2024-01-30T09:19:28;3.17;;;1.67;;
41755;SDS011;27435;48.480;9.258;2024-01-30T09:21:53;3.70;;;1.10;;
41755;SDS011;27435;48.480;9.258;2024-01-30T09:24:19;3.77;;;1.30;;
41755;SDS011;27435;48.480;9.258;2024-01-30T09:26:45;2.97;;;1.60;;
41755;SDS011;27435;48.480;9.258;2024-01-30T09:29:10;14.83;;;7.80;;
41755;SDS011;27435;48.480;9.258;2024-01-30T09:31:36;10.43;;;6.50;;
41755;SDS011;27435;48.480;9.258;2024-01-30T09:34:02;10.93;;;6.03;;
41755;SDS011;27435;48.480;9.258;2024-01-30T09:36:27;9.17;;;4.43;;
41755;SDS011;27435;48.480;9.258;2024-01-30T09:38:53;4.23;;;1.90;;
41755;SDS011;27435;48.480;9.258;2024-01-30T09:41:19;5.60;;;2.67;;
41755;SDS011;27435;48.480;9.258;2024-01-30T09:43:48;17.60;;;8.50;;
41755;SDS011;27435;48.480;9.258;2024-01-30T09:46:16;11.20;;;6.30;;
41755;SDS011;27435;48.480;9.258;2024-01-30T09:48:43;13.23;;;6.07;;
41755;SDS011;27435;48.480;9.258;2024-01-30T09:51:14;14.47;;;5.83;;
41755;SDS011;27435;48.480;9.258;2024-01-30T09:53:42;40.13;;;7.63;;
41755;SDS011;27435;48.480;9.258;2024-01-30T09:56:09;40.90;;;9.00;;
41755;SDS011;27435;48.480;9.258;2024-01-30T09:58:36;26.20;;;7.40;;
41755;SDS011;27435;48.480;9.258;2024-01-30T10:01:01;52.60;;;8.00;;
41755;SDS011;27435;48.480;9.258;2024-01-30T10:03:27;42.43;;;9.60;;
41755;SDS011;27435;48.480;9.258;2024-01-30T10:05:53;35.87;;;8.87;;
41755;SDS011;27435;48.480;9.258;2024-01-30T10:08:21;31.43;;;7.77;;
41755;SDS011;27435;48.480;9.258;2024-01-30T10:10:47;30.70;;;8.40;;
41755;SDS011;27435;48.480;9.258;2024-01-30T10:13:13;26.17;;;9.33;;
41755;SDS011;27435;48.480;9.258;2024-01-30T10:15:39;25.90;;;7.43;;
41755;SDS011;27435;48.480;9.258;2024-01-30T10:18:05;20.43;;;7.80;;
41755;SDS011;27435;48.480;9.258;2024-01-30T10:20:32;17.37;;;7.13;;
41755;SDS011;27435;48.480;9.258;2024-01-30T10:22:57;18.00;;;7.13;;
41755;SDS011;27435;48.480;9.258;2024-01-30T10:25:25;22.87;;;6.90;;
41755;SDS011;27435;48.480;9.258;2024-01-30T10:27:54;22.30;;;5.83;;
41755;SDS011;27435;48.480;9.258;2024-01-30T10:30:23;12.67;;;4.70;;
41755;SDS011;27435;48.480;9.258;2024-01-30T10:32:49;60.70;;;25.67;;
41755;SDS011;27435;48.480;9.258;2024-01-30T10:35:16;52.50;;;20.30;;
41755;SDS011;27435;48.480;9.258;2024-01-30T10:37:46;24.80;;;10.03;;
41755;SDS011;27435;48.480;9.258;2024-01-30T10:40:13;9.97;;;4.50;;
41755;SDS011;27435;48.480;9.258;2024-01-30T10:42:44;9.47;;;3.33;;
41755;SDS011;27435;48.480;9.258;2024-01-30T10:45:14;6.20;;;3.00;;
41755;SDS011;27435;48.480;9.258;2024-01-30T10:47:44;5.87;;;2.67;;
41755;SDS011;27435;48.480;9.258;2024-01-30T10:50:14;6.50;;;2.63;;
41755;SDS011;27435;48.480;9.258;2024-01-30T10:52:42;3.87;;;1.63;;
41755;SDS011;27435;48.480;9.258;2024-01-30T10:55:08;8.50;;;2.00;;
41755;SDS011;27435;48.480;9.258;2024-01-30T10:57:35;5.23;;;1.80;;
41755;SDS011;27435;48.480;9.258;2024-01-30T11:00:02;4.80;;;2.17;;
41755;SDS011;27435;48.480;9.258;2024-01-30T11:02:35;5.27;;;1.90;;
41755;SDS011;27435;48.480;9.258;2024-01-30T11:05:05;3.97;;;2.10;;
41755;SDS011;27435;48.480;9.258;2024-01-30T11:07:31;4.50;;;2.10;;
41755;SDS011;27435;48.480;9.258;2024-01-30T11:12:23;4.10;;;2.20;;
41755;SDS011;27435;48.480;9.258;2024-01-30T11:14:49;4.40;;;1.70;;
41755;SDS011;27435;48.480;9.258;2024-01-30T11:17:27;5.67;;;2.73;;
41755;SDS011;27435;48.480;9.258;2024-01-30T11:19:53;6.10;;;2.57;;
41755;SDS011;27435;48.480;9.258;2024-01-30T11:22:20;6.93;;;2.13;;
41755;SDS011;27435;48.480;9.258;2024-01-30T11:24:46;4.43;;;2.00;;
41755;SDS011;27435;48.480;9.258;2024-01-30T11:27:12;6.83;;;2.27;;
41755;SDS011;27435;48.480;9.258;2024-01-30T11:29:40;6.80;;;2.17;;
41755;SDS011;27435;48.480;9.258;2024-01-30T11:32:05;4.77;;;2.37;;
41755;SDS011;27435;48.480;9.258;2024-01-30T11:34:32;4.77;;;2.10;;
41755;SDS011;27435;48.480;9.258;2024-01-30T11:37:03;6.90;;;2.60;;
41755;SDS011;27435;48.480;9.258;2024-01-30T11:39:34;6.17;;;2.30;;
41755;SDS011;27435;48.480;9.258;2024-01-30T11:42:01;7.73;;;2.93;;
41755;SDS011;27435;48.480;9.258;2024-01-30T11:44:30;5.73;;;2.70;;
41755;SDS011;27435;48.480;9.258;2024-01-30T11:46:56;4.80;;;1.90;;
41755;SDS011;27435;48.480;9.258;2024-01-30T11:49:21;6.20;;;2.37;;
41755;SDS011;27435;48.480;9.258;2024-01-30T11:51:48;5.60;;;2.13;;
41755;SDS011;27435;48.480;9.258;2024-01-30T11:54:14;5.97;;;1.93;;
41755;SDS011;27435;48.480;9.258;2024-01-30T11:56:41;4.37;;;2.03;;
41755;SDS011;27435;48.480;9.258;2024-01-30T11:59:08;5.50;;;2.23;;
41755;SDS011;27435;48.480;9.258;2024-01-30T12:01:34;4.80;;;2.53;;
41755;SDS011;27435;48.480;9.258;2024-01-30T12:04:00;5.70;;;2.30;;
41755;SDS011;27435;48.480;9.258;2024-01-30T12:06:26;7.57;;;3.60;;
41755;SDS011;27435;48.480;9.258;2024-01-30T12:08:56;14.93;;;6.63;;
41755;SDS011;27435;48.480;9.258;2024-01-30T12:11:26;11.20;;;4.73;;
41755;SDS011;27435;48.480;9.258;2024-01-30T12:13:52;10.13;;;4.20;;
41755;SDS011;27435;48.480;9.258;2024-01-30T12:16:19;6.23;;;3.67;;
41755;SDS011;27435;48.480;9.258;2024-01-30T12:18:45;8.20;;;4.30;;
41755;SDS011;27435;48.480;9.258;2024-01-30T12:21:11;6.53;;;3.60;;
41755;SDS011;27435;48.480;9.258;2024-01-30T12:23:37;6.87;;;3.27;;
41755;SDS011;27435;48.480;9.258;2024-01-30T12:26:03;6.43;;;3.50;;
41755;SDS011;27435;48.480;9.258;2024-01-30T12:28:32;9.07;;;4.07;;
41755;SDS011;27435;48.480;9.258;2024-01-30T12:31:04;5.97;;;2.80;;
41755;SDS011;27435;48.480;9.258;2024-01-30T12:33:30;7.13;;;2.80;;
41755;SDS011;27435;48.480;9.258;2024-01-30T12:35:56;8.47;;;3.17;;
41755;SDS011;27435;48.480;9.258;2024-01-30T12:38:23;5.77;;;3.33;;
41755;SDS011;27435;48.480;9.258;2024-01-30T12:40:50;6.40;;;2.93;;
41755;SDS011;27435;48.480;9.258;2024-01-30T12:43:19;5.80;;;2.60;;
41755;SDS011;27435;48.480;9.258;2024-01-30T12:45:45;5.50;;;2.70;;
41755;SDS011;27435;48.480;9.258;2024-01-30T12:48:11;4.53;;;2.30;;
41755;SDS011;27435;48.480;9.258;2024-01-30T12:50:37;7.28;;;2.83;;
41755;SDS011;27435;48.480;9.258;2024-01-30T12:53:03;5.88;;;2.10;;
41755;SDS011;27435;48.480;9.258;2024-01-30T12:55:29;5.90;;;2.63;;
41755;SDS011;27435;48.480;9.258;2024-01-30T12:57:55;8.30;;;2.63;;
41755;SDS011;27435;48.480;9.258;2024-01-30T13:00:21;4.63;;;2.50;;
41755;SDS011;27435;48.480;9.258;2024-01-30T13:02:47;7.55;;;2.72;;
41755;SDS011;27435;48.480;9.258;2024-01-30T13:05:13;6.78;;;2.78;;
41755;SDS011;27435;48.480;9.258;2024-01-30T13:07:39;7.07;;;2.85;;
41755;SDS011;27435;48.480;9.258;2024-01-30T13:10:05;4.55;;;2.78;;
41755;SDS011;27435;48.480;9.258;2024-01-30T13:12:31;6.13;;;2.67;;
41755;SDS011;27435;48.480;9.258;2024-01-30T13:14:58;6.28;;;2.65;;
41755;SDS011;27435;48.480;9.258;2024-01-30T13:17:26;8.48;;;2.40;;
41755;SDS011;27435;48.480;9.258;2024-01-30T13:19:52;7.47;;;3.30;;
41755;SDS011;27435;48.480;9.258;2024-01-30T13:22:19;5.03;;;2.60;;
41755;SDS011;27435;48.480;9.258;2024-01-30T13:24:46;4.80;;;2.50;;
41755;SDS011;27435;48.480;9.258;2024-01-30T13:27:12;8.45;;;2.95;;
41755;SDS011;27435;48.480;9.258;2024-01-30T13:29:38;7.88;;;2.53;;
41755;SDS011;27435;48.480;9.258;2024-01-30T13:32:04;3.78;;;2.30;;
41755;SDS011;27435;48.480;9.258;2024-01-30T13:34:30;5.68;;;2.47;;
41755;SDS011;27435;48.480;9.258;2024-01-30T13:36:55;4.82;;;2.05;;
41755;SDS011;27435;48.480;9.258;2024-01-30T13:39:21;9.35;;;2.83;;
41755;SDS011;27435;48.480;9.258;2024-01-30T13:41:48;8.18;;;3.13;;
41755;SDS011;27435;48.480;9.258;2024-01-30T13:44:14;6.60;;;2.72;;
41755;SDS011;27435;48.480;9.258;2024-01-30T13:46:41;4.80;;;2.58;;
41755;SDS011;27435;48.480;9.258;2024-01-30T13:49:07;6.57;;;2.30;;
41755;SDS011;27435;48.480;9.258;2024-01-30T13:51:33;8.48;;;2.58;;
41755;SDS011;27435;48.480;9.258;2024-01-30T13:53:58;8.13;;;2.08;;
41755;SDS011;27435;48.480;9.258;2024-01-30T13:56:24;13.27;;;2.43;;
41755;SDS011;27435;48.480;9.258;2024-01-30T13:58:51;7.93;;;2.33;;
41755;SDS011;27435;48.480;9.258;2024-01-30T14:01:17;6.80;;;2.47;;
41755;SDS011;27435;48.480;9.258;2024-01-30T14:03:43;6.20;;;2.10;;
41755;SDS011;27435;48.480;9.258;2024-01-30T14:06:09;3.83;;;1.90;;
41755;SDS011;27435;48.480;9.258;2024-01-30T14:08:35;4.32;;;2.17;;
41755;SDS011;27435;48.480;9.258;2024-01-30T14:11:01;6.00;;;1.92;;
41755;SDS011;27435;48.480;9.258;2024-01-30T14:13:27;3.88;;;1.95;;
41755;SDS011;27435;48.480;9.258;2024-01-30T14:15:52;4.13;;;2.17;;
41755;SDS011;27435;48.480;9.258;2024-01-30T14:18:19;6.28;;;2.05;;
41755;SDS011;27435;48.480;9.258;2024-01-30T14:20:45;4.10;;;1.80;;
41755;SDS011;27435;48.480;9.258;2024-01-30T14:23:11;10.15;;;2.80;;
41755;SDS011;27435;48.480;9.258;2024-01-30T14:25:36;6.25;;;2.70;;
41755;SDS011;27435;48.480;9.258;2024-01-30T14:28:02;3.97;;;1.92;;
41755;SDS011;27435;48.480;9.258;2024-01-30T14:30:28;4.70;;;2.30;;
41755;SDS011;27435;48.480;9.258;2024-01-30T14:32:54;5.05;;;2.25;;
41755;SDS011;27435;48.480;9.258;2024-01-30T14:35:21;4.97;;;1.90;;
41755;SDS011;27435;48.480;9.258;2024-01-30T14:37:47;6.43;;;1.77;;
41755;SDS011;27435;48.480;9.258;2024-01-30T14:40:12;6.13;;;2.17;;